createdAt,value
2022-08-02T00:01:09.112Z,66.15
2022-08-02T00:03:38.359Z,66.20
2022-08-02T00:06:07.995Z,66.04
2022-08-02T00:08:37.174Z,66.29
2022-08-02T00:11:06.501Z,65.94
2022-08-02T00:13:35.680Z,65.95
2022-08-02T00:16:07.311Z,65.93
2022-08-02T00:18:36.568Z,65.56
2022-08-02T00:21:05.978Z,65.66
2022-08-02T00:24:04.950Z,65.98
2022-08-02T00:26:25.354Z,66.17
2022-08-02T00:28:54.585Z,66.73
2022-08-02T00:31:26.105Z,66.93
2022-08-02T00:34:05.650Z,67.15
2022-08-02T00:36:44.858Z,67.48
2022-08-02T00:39:34.798Z,67.82
2022-08-02T00:42:03.325Z,67.77
2022-08-02T00:44:32.708Z,67.82
2022-08-02T00:47:04.064Z,67.93
2022-08-02T00:49:33.853Z,67.72
2022-08-02T00:52:03.224Z,67.78
2022-08-02T00:54:32.572Z,67.77
2022-08-02T00:57:02.466Z,68.42
2022-08-02T00:59:31.774Z,68.52
2022-08-02T01:02:00.955Z,68.63
2022-08-02T01:04:32.515Z,70.12
2022-08-02T01:07:03.617Z,69.82
2022-08-02T01:09:43.087Z,70.48
2022-08-02T01:12:13.681Z,70.75
2022-08-02T01:14:45.265Z,71.47
2022-08-02T01:17:20.507Z,72.14
2022-08-02T01:19:59.909Z,73.35
2022-08-02T01:23:05.053Z,73.37
2022-08-02T01:25:55.446Z,72.85
2022-08-02T01:28:36.739Z,73.62
2022-08-02T01:31:15.964Z,74.27
2022-08-02T01:33:50.170Z,73.73
2022-08-02T01:36:22.917Z,74.13
2022-08-02T01:38:56.234Z,74.24
2022-08-02T01:41:29.238Z,73.39
2022-08-02T01:44:02.182Z,73.20
2022-08-02T01:46:34.728Z,72.89
2022-08-02T01:49:09.463Z,73.08
2022-08-02T01:51:54.800Z,72.42
2022-08-02T01:54:26.909Z,72.46
2022-08-02T01:56:58.447Z,72.39
2022-08-02T01:59:31.818Z,72.09
2022-08-02T02:02:03.395Z,71.89
2022-08-02T02:04:34.069Z,72.16
2022-08-02T02:07:05.367Z,72.25
2022-08-02T02:09:47.719Z,72.36
2022-08-02T02:12:21.342Z,71.97
2022-08-02T02:14:53.944Z,71.97
2022-08-02T02:18:10.587Z,71.40
2022-08-02T02:20:17.134Z,71.60
2022-08-02T02:22:48.473Z,71.51
2022-08-02T02:25:35.569Z,71.47
2022-08-02T02:28:11.481Z,71.02
2022-08-02T02:30:48.376Z,71.26
2022-08-02T02:33:20.479Z,71.12
2022-08-02T02:35:53.378Z,70.78
2022-08-02T02:38:24.296Z,70.63
2022-08-02T02:40:54.992Z,70.54
2022-08-02T02:43:26.694Z,70.03
2022-08-02T02:45:58.395Z,69.35
2022-08-02T02:48:29.627Z,69.32
2022-08-02T02:51:00.661Z,68.59
2022-08-02T02:54:30.195Z,68.53
2022-08-02T02:56:21.652Z,68.44
2022-08-02T02:58:52.385Z,68.48
2022-08-02T03:01:35.830Z,68.45
2022-08-02T03:04:20.740Z,68.17
2022-08-02T03:06:51.555Z,68.04
2022-08-02T03:09:21.001Z,67.35
2022-08-02T03:11:51.295Z,67.65
2022-08-02T03:14:20.673Z,67.15
2022-08-02T03:16:53.644Z,66.99
2022-08-02T03:19:23.969Z,67.15
2022-08-02T03:22:02.680Z,66.71
2022-08-02T03:24:32.662Z,66.41
2022-08-02T03:27:01.870Z,66.37
2022-08-02T03:29:34.425Z,66.09
2022-08-02T03:32:07.071Z,65.68
2022-08-02T03:34:36.326Z,65.43
2022-08-02T03:37:06.009Z,65.18
2022-08-02T03:39:37.047Z,64.77
2022-08-02T03:42:15.386Z,64.42
2022-08-02T03:44:45.441Z,64.97
2022-08-02T03:47:17.461Z,64.36
2022-08-02T03:49:47.286Z,64.35
2022-08-02T03:52:17.371Z,63.55
2022-08-02T03:54:46.918Z,62.55
2022-08-02T03:57:16.385Z,61.69
2022-08-02T03:59:47.621Z,60.89
2022-08-02T04:02:19.965Z,59.80
2022-08-02T04:04:49.266Z,59.46
2022-08-02T04:08:01.134Z,59.00
2022-08-02T04:10:08.321Z,58.80
2022-08-02T04:12:37.584Z,58.91
2022-08-02T04:15:09.556Z,58.54
2022-08-02T04:17:45.074Z,58.31
2022-08-02T04:20:19.983Z,57.67
2022-08-02T04:22:54.713Z,57.26
2022-08-02T04:25:35.429Z,56.73
2022-08-02T04:28:17.260Z,56.74
2022-08-02T04:30:49.092Z,56.49
2022-08-02T04:33:20.894Z,56.32
2022-08-02T04:35:50.215Z,56.22
2022-08-02T04:38:21.106Z,55.77
2022-08-02T04:40:55.254Z,55.70
2022-08-02T04:43:25.613Z,55.81
2022-08-02T04:45:56.505Z,55.41
2022-08-02T04:48:27.690Z,55.31
2022-08-02T04:50:58.150Z,55.76
2022-08-02T04:53:27.395Z,55.97
2022-08-02T04:55:57.361Z,55.91
2022-08-02T04:58:42.004Z,55.73
2022-08-02T05:01:11.292Z,55.47
2022-08-02T05:03:42.467Z,55.04
2022-08-02T05:06:18.648Z,54.07
2022-08-02T05:08:52.823Z,52.62
2022-08-02T05:11:34.161Z,52.10
2022-08-02T05:14:04.386Z,51.29
2022-08-02T05:16:33.539Z,51.73
2022-08-02T05:19:05.036Z,50.21
2022-08-02T05:21:34.428Z,49.89
2022-08-02T05:24:03.631Z,50.02
2022-08-02T05:26:33.053Z,49.41
2022-08-02T05:29:02.877Z,49.07
2022-08-02T05:31:32.421Z,49.26
2022-08-02T05:34:05.799Z,49.10
2022-08-02T05:36:37.940Z,48.47
2022-08-02T05:39:18.583Z,48.76
2022-08-02T05:41:48.429Z,48.67
2022-08-02T05:44:17.778Z,48.70
2022-08-02T05:46:47.142Z,48.09
2022-08-02T05:49:19.037Z,47.72
2022-08-02T05:51:58.866Z,48.60
2022-08-02T05:54:39.421Z,47.77
2022-08-02T05:57:16.259Z,47.77
2022-08-02T05:59:58.312Z,48.07
2022-08-02T06:02:32.056Z,48.07
2022-08-02T06:05:07.586Z,47.43
2022-08-02T06:07:39.003Z,47.34
2022-08-02T06:10:12.893Z,46.83
2022-08-02T06:12:48.395Z,46.08
2022-08-02T06:15:19.562Z,46.36
2022-08-02T06:17:49.364Z,47.84
2022-08-02T06:20:22.595Z,48.77
2022-08-02T06:22:53.131Z,50.09
2022-08-02T06:25:49.714Z,51.16
2022-08-02T06:28:16.027Z,52.03
2022-08-02T06:30:46.483Z,52.12
2022-08-02T06:33:15.840Z,51.98
2022-08-02T06:35:55.634Z,52.73
2022-08-02T06:38:27.297Z,53.93
2022-08-02T06:40:58.575Z,52.62
2022-08-02T06:43:36.718Z,53.23
2022-08-02T06:46:57.069Z,53.29
2022-08-02T06:48:59.637Z,53.10
2022-08-02T06:51:30.882Z,52.64
2022-08-02T06:54:00.134Z,52.76
2022-08-02T06:56:29.611Z,52.29
2022-08-02T06:59:02.133Z,52.41
2022-08-02T07:01:38.971Z,51.22
2022-08-02T07:04:08.825Z,51.29
2022-08-02T07:06:39.964Z,51.18
2022-08-02T07:09:24.562Z,50.73
2022-08-02T07:11:53.818Z,52.02
2022-08-02T07:14:23.044Z,51.78
2022-08-02T07:16:55.235Z,51.55
2022-08-02T07:19:29.866Z,50.92
2022-08-02T07:22:09.192Z,51.15
2022-08-02T07:24:38.109Z,50.70
2022-08-02T07:29:45.901Z,50.97
2022-08-02T07:32:17.084Z,50.93
2022-08-02T07:34:51.415Z,51.30
2022-08-02T07:37:53.690Z,50.63
2022-08-02T07:40:20.484Z,51.65
2022-08-02T07:42:51.711Z,51.11
2022-08-02T07:45:22.249Z,49.58
2022-08-02T07:47:52.450Z,49.25
2022-08-02T07:50:23.425Z,48.02
2022-08-02T07:52:57.737Z,47.60
2022-08-02T07:55:39.418Z,46.45
2022-08-02T07:58:11.504Z,45.82
2022-08-02T08:00:44.100Z,45.12
2022-08-02T08:03:14.072Z,45.50
2022-08-02T08:05:43.461Z,45.70
2022-08-02T08:08:17.733Z,46.07
2022-08-02T08:10:47.367Z,45.89
2022-08-02T08:13:16.695Z,44.61
2022-08-02T08:15:52.020Z,43.73
2022-08-02T08:18:22.212Z,42.94
2022-08-02T08:20:52.208Z,41.86
2022-08-02T08:23:23.627Z,40.03
2022-08-02T08:25:52.666Z,40.92
2022-08-02T08:28:21.889Z,40.04
2022-08-02T08:30:51.866Z,40.02
2022-08-02T08:33:21.031Z,40.06
2022-08-02T08:35:50.658Z,40.14
2022-08-02T08:38:20.722Z,40.28
2022-08-02T08:40:53.233Z,39.96
2022-08-02T08:43:22.733Z,38.87
2022-08-02T08:45:55.775Z,38.38
2022-08-02T08:48:31.550Z,38.90
2022-08-02T08:51:06.908Z,39.41
2022-08-02T08:53:42.035Z,39.90
2022-08-02T08:56:16.579Z,39.80
2022-08-02T08:58:48.028Z,39.25
2022-08-02T09:01:21.259Z,38.56
2022-08-02T09:03:50.538Z,38.36
2022-08-02T09:06:20.103Z,38.56
2022-08-02T09:08:49.335Z,38.52
2022-08-02T09:11:24.651Z,39.02
2022-08-02T09:13:56.604Z,39.29
2022-08-02T09:16:33.914Z,39.31
2022-08-02T09:19:17.945Z,39.70
2022-08-02T09:21:47.508Z,39.50
2022-08-02T09:24:22.977Z,38.74
2022-08-02T09:26:54.514Z,38.48
2022-08-02T09:29:24.786Z,38.79
2022-08-02T09:32:04.222Z,38.77
2022-08-02T09:34:46.358Z,39.13
2022-08-02T09:37:29.899Z,39.18
2022-08-02T09:40:02.868Z,39.35
2022-08-02T09:42:35.409Z,39.09
2022-08-02T09:45:05.626Z,39.17
2022-08-02T09:47:37.533Z,38.92
2022-08-02T09:50:09.977Z,38.63
2022-08-02T09:52:45.374Z,38.52
2022-08-02T09:55:15.716Z,38.25
2022-08-02T09:57:51.177Z,37.94
2022-08-02T10:00:37.104Z,38.10
2022-08-02T10:03:19.339Z,38.53
2022-08-02T10:05:56.327Z,38.20
2022-08-02T10:08:33.152Z,37.75
2022-08-02T10:11:03.669Z,37.87
2022-08-02T10:13:37.543Z,37.12
2022-08-02T10:16:08.119Z,36.34
2022-08-02T10:18:39.793Z,35.81
2022-08-02T10:21:14.309Z,35.17
2022-08-02T10:23:46.332Z,35.47
2022-08-02T10:26:18.877Z,35.63
2022-08-02T10:28:51.912Z,36.03
2022-08-02T10:31:25.981Z,35.32
2022-08-02T10:34:00.359Z,35.09
2022-08-02T10:36:33.492Z,35.35
2022-08-02T10:39:04.729Z,35.79
2022-08-02T10:41:55.073Z,35.68
2022-08-02T10:44:31.609Z,35.28
2022-08-02T10:47:22.823Z,35.43
2022-08-02T10:49:55.139Z,35.59
2022-08-02T10:52:25.460Z,35.41
2022-08-02T10:55:00.229Z,35.51
2022-08-02T10:57:31.344Z,35.91
2022-08-02T11:00:12.007Z,35.84
2022-08-02T11:02:53.589Z,35.57
2022-08-02T11:05:42.563Z,36.21
2022-08-02T11:08:22.836Z,36.05
2022-08-02T11:10:52.276Z,36.41
2022-08-02T11:13:22.678Z,36.48
2022-08-02T11:15:56.652Z,36.33
2022-08-02T11:19:00.790Z,36.98
2022-08-02T11:21:31.465Z,37.09
2022-08-02T11:24:28.987Z,37.28
2022-08-02T11:26:59.693Z,37.31
2022-08-02T11:29:40.308Z,37.17
2022-08-02T11:32:18.598Z,36.65
2022-08-02T11:34:49.824Z,37.02
2022-08-02T11:37:30.184Z,37.32
2022-08-02T11:39:59.602Z,37.12
2022-08-02T11:42:34.587Z,36.81
2022-08-02T11:45:04.331Z,37.09
2022-08-02T11:47:37.693Z,36.74
2022-08-02T11:50:12.534Z,36.83
2022-08-02T11:52:42.639Z,36.59
2022-08-02T11:55:13.640Z,36.15
2022-08-02T11:58:04.161Z,36.05
2022-08-02T12:00:33.817Z,36.02
2022-08-02T12:03:04.965Z,35.94
2022-08-02T12:06:04.034Z,35.96
2022-08-02T12:08:25.530Z,34.90
2022-08-02T12:10:54.873Z,35.11
2022-08-02T12:13:24.013Z,35.29
2022-08-02T12:15:53.215Z,35.65
2022-08-02T12:18:37.954Z,35.77
2022-08-02T12:21:23.407Z,36.15
2022-08-02T12:24:00.405Z,36.12
2022-08-02T12:26:31.553Z,36.09
2022-08-02T12:29:01.612Z,36.41
2022-08-02T12:31:57.171Z,36.59
2022-08-02T12:34:31.852Z,35.94
2022-08-02T12:37:03.787Z,35.89
2022-08-02T12:39:41.820Z,36.13
2022-08-02T12:42:12.487Z,35.97
2022-08-02T12:44:53.112Z,35.66
2022-08-02T12:47:23.136Z,35.93
2022-08-02T12:57:53.757Z,35.93
2022-08-02T13:00:27.711Z,35.64
2022-08-02T13:02:57.294Z,35.68
2022-08-02T13:05:28.656Z,35.96
2022-08-02T13:08:18.304Z,36.52
2022-08-02T13:10:47.548Z,35.21
2022-08-02T13:13:21.296Z,35.15
2022-08-02T13:15:51.619Z,35.05
2022-08-02T13:18:20.906Z,35.24
2022-08-02T13:20:50.203Z,34.89
2022-08-02T13:23:21.318Z,35.16
2022-08-02T13:25:52.740Z,35.33
2022-08-02T13:28:24.494Z,35.23
2022-08-02T13:30:53.757Z,35.84
2022-08-02T13:33:24.900Z,35.30
2022-08-02T13:35:54.135Z,34.98
2022-08-02T13:38:25.012Z,34.94
2022-08-02T13:41:07.387Z,34.88
2022-08-02T13:43:52.586Z,34.42
2022-08-02T13:46:29.465Z,34.61
2022-08-02T13:48:59.201Z,34.36
2022-08-02T13:51:28.474Z,34.28
2022-08-02T13:53:58.177Z,34.52
2022-08-02T13:56:35.368Z,34.35
2022-08-02T13:59:55.363Z,34.77
2022-08-02T14:01:58.084Z,34.44
2022-08-02T14:04:29.379Z,35.25
2022-08-02T14:06:59.206Z,35.21
2022-08-02T14:09:29.592Z,35.32
2022-08-02T14:12:03.268Z,35.40
2022-08-02T14:14:34.651Z,35.90
2022-08-02T14:17:06.355Z,35.47
2022-08-02T14:19:35.638Z,34.79
2022-08-02T14:22:10.919Z,34.91
2022-08-02T14:24:42.103Z,35.20
2022-08-02T14:27:11.543Z,35.69
2022-08-02T14:29:42.844Z,35.77
2022-08-02T14:32:12.948Z,36.08
2022-08-02T14:34:43.836Z,36.20
2022-08-02T14:37:13.056Z,35.99
2022-08-02T14:40:00.026Z,36.10
2022-08-02T14:42:30.394Z,35.38
2022-08-02T14:45:02.276Z,35.46
2022-08-02T14:47:33.804Z,35.41
2022-08-02T14:50:03.159Z,36.11
2022-08-02T14:52:33.635Z,36.04
2022-08-02T14:55:04.121Z,36.52
2022-08-02T14:57:33.465Z,36.35
2022-08-02T15:00:06.037Z,37.11
2022-08-02T15:02:35.907Z,36.53
2022-08-02T15:05:05.522Z,38.36
2022-08-02T15:07:42.013Z,37.60
2022-08-02T15:10:13.992Z,36.82
2022-08-02T15:12:43.181Z,36.79
2022-08-02T15:15:14.418Z,36.17
2022-08-02T15:17:43.703Z,36.26
2022-08-02T15:20:24.709Z,36.64
2022-08-02T15:22:55.462Z,36.43
2022-08-02T15:25:25.512Z,36.57
2022-08-02T15:27:54.772Z,36.76
2022-08-02T15:30:26.893Z,36.94
2022-08-02T15:32:56.239Z,37.72
2022-08-02T15:35:25.519Z,37.10
2022-08-02T15:37:54.810Z,37.84
2022-08-02T15:40:24.574Z,37.62
2022-08-02T15:42:54.415Z,37.03
2022-08-02T15:45:27.452Z,37.29
2022-08-02T15:47:56.965Z,36.65
2022-08-02T15:50:26.469Z,36.58
2022-08-02T15:52:56.313Z,36.71
2022-08-02T15:55:25.455Z,36.97
2022-08-02T15:57:54.747Z,35.63
2022-08-02T16:00:26.150Z,35.09
2022-08-02T16:02:55.359Z,34.80
2022-08-02T16:05:24.797Z,35.10
2022-08-02T16:07:54.494Z,34.40
2022-08-02T16:10:24.851Z,34.15
2022-08-02T16:13:17.906Z,34.25
2022-08-02T16:15:49.489Z,34.39
2022-08-02T16:18:21.460Z,34.85
2022-08-02T16:20:50.758Z,35.58
2022-08-02T16:23:59.093Z,35.38
2022-08-02T16:26:11.804Z,37.14
2022-08-02T16:28:41.081Z,37.46
2022-08-02T16:31:12.349Z,36.13
2022-08-02T16:33:41.666Z,36.46
2022-08-02T16:36:12.850Z,36.47
2022-08-02T16:38:42.177Z,36.56
2022-08-02T16:41:12.137Z,36.07
2022-08-02T16:43:45.569Z,36.95
2022-08-02T16:46:17.226Z,36.33
2022-08-02T16:48:50.897Z,36.61
2022-08-02T16:51:20.798Z,36.72
2022-08-02T16:53:59.241Z,36.85
2022-08-02T16:56:30.778Z,36.77
2022-08-02T16:59:00.416Z,37.12
2022-08-02T17:02:03.230Z,36.94
2022-08-02T17:04:22.822Z,37.41
2022-08-02T17:06:52.545Z,38.04
2022-08-02T17:10:03.710Z,38.19
2022-08-02T17:12:16.079Z,38.43
2022-08-02T17:17:43.174Z,40.32
2022-08-02T17:20:13.293Z,40.86
2022-08-02T17:22:44.305Z,41.78
2022-08-02T17:25:15.626Z,42.74
2022-08-02T17:27:47.092Z,42.96
2022-08-02T17:30:27.269Z,43.28
2022-08-02T17:32:59.304Z,43.98
2022-08-02T17:35:40.008Z,43.90
2022-08-02T17:38:26.070Z,44.83
2022-08-02T17:40:56.947Z,45.52
2022-08-02T17:43:29.577Z,45.46
2022-08-02T17:46:02.595Z,45.75
2022-08-02T17:49:00.698Z,46.40
2022-08-02T17:52:15.487Z,46.42
2022-08-02T17:54:22.122Z,46.66
2022-08-02T17:56:52.201Z,45.88
2022-08-02T17:59:31.293Z,46.82
2022-08-02T18:02:11.949Z,47.19
2022-08-02T18:04:43.134Z,47.36
2022-08-02T18:07:16.771Z,47.65
2022-08-02T18:09:53.484Z,48.03
2022-08-02T18:12:22.748Z,48.57
2022-08-02T18:14:52.188Z,48.87
2022-08-02T18:17:21.612Z,49.35
2022-08-02T18:19:59.310Z,49.67
2022-08-02T18:22:35.367Z,49.81
2022-08-02T18:25:09.130Z,50.00
2022-08-02T18:27:41.298Z,49.94
2022-08-02T18:30:17.592Z,49.96
2022-08-02T18:33:54.298Z,50.65
2022-08-02T18:35:43.253Z,50.19
2022-08-02T18:38:13.054Z,49.52
2022-08-02T18:40:44.673Z,49.19
2022-08-02T18:43:25.703Z,49.36
2022-08-02T18:46:06.489Z,49.19
2022-08-02T18:48:47.101Z,50.26
2022-08-02T18:51:19.687Z,50.34
2022-08-02T18:53:52.823Z,49.42
2022-08-02T18:56:24.378Z,50.02
2022-08-02T18:58:55.202Z,50.52
2022-08-02T19:01:32.724Z,50.16
2022-08-02T19:04:04.279Z,49.77
2022-08-02T19:06:35.666Z,50.02
2022-08-02T19:11:55.036Z,50.44
2022-08-02T19:14:28.161Z,49.25
2022-08-02T19:16:59.353Z,49.05
2022-08-02T19:19:29.649Z,49.88
2022-08-02T19:24:55.967Z,49.36
2022-08-02T19:27:32.515Z,49.06
2022-08-02T19:30:03.849Z,50.13
2022-08-02T19:32:40.710Z,49.49
2022-08-02T19:35:29.752Z,49.79
2022-08-02T19:38:10.502Z,49.98
2022-08-02T19:40:42.962Z,49.83
2022-08-02T19:44:21.649Z,49.61
2022-08-02T19:46:02.426Z,49.64
2022-08-02T19:48:31.776Z,50.32
2022-08-02T19:51:07.871Z,50.18
2022-08-02T19:53:48.557Z,49.75
2022-08-02T19:56:20.938Z,49.92
2022-08-02T19:59:12.999Z,50.40
2022-08-02T20:01:48.447Z,50.99
2022-08-02T20:04:23.147Z,51.08
2022-08-02T20:06:55.452Z,51.06
2022-08-02T20:09:33.162Z,51.27
2022-08-02T20:12:16.476Z,51.52
2022-08-02T20:14:51.185Z,51.58
2022-08-02T20:17:21.830Z,51.82
2022-08-02T20:19:52.605Z,51.72
2022-08-02T20:22:21.960Z,51.94
2022-08-02T20:24:53.751Z,52.55
2022-08-02T20:27:27.212Z,52.54
2022-08-02T20:29:59.479Z,52.69
2022-08-02T20:32:28.631Z,52.52
2022-08-02T20:34:57.891Z,52.98
2022-08-02T20:38:00.674Z,52.67
2022-08-02T20:40:18.653Z,53.17
2022-08-02T20:42:48.573Z,52.75
2022-08-02T20:45:18.393Z,53.27
2022-08-02T20:47:49.888Z,53.72
2022-08-02T20:50:51.668Z,54.22
2022-08-02T20:53:23.561Z,54.23
2022-08-02T20:55:57.770Z,55.02
2022-08-02T20:58:27.985Z,54.89
2022-08-02T21:00:59.566Z,55.36
2022-08-02T21:03:39.176Z,55.49
2022-08-02T21:06:10.994Z,55.33
2022-08-02T21:08:40.740Z,55.72
2022-08-02T21:11:12.714Z,56.11
2022-08-02T21:13:47.320Z,55.59
2022-08-02T21:16:32.872Z,55.70
2022-08-02T21:19:03.298Z,55.66
2022-08-02T21:21:39.320Z,55.96
2022-08-02T21:24:11.353Z,56.08
2022-08-02T21:26:43.912Z,56.20
2022-08-02T21:29:18.022Z,55.77
2022-08-02T21:31:47.249Z,55.58
2022-08-02T21:34:22.355Z,55.80
2022-08-02T21:36:57.257Z,55.73
2022-08-02T21:39:26.657Z,56.35
2022-08-02T21:41:57.815Z,56.07
2022-08-02T21:44:26.965Z,56.68
2022-08-02T21:46:58.908Z,56.66
2022-08-02T21:50:09.593Z,55.95
2022-08-02T21:52:19.535Z,55.68
2022-08-02T21:54:52.738Z,55.66
2022-08-02T21:57:25.671Z,56.37
2022-08-02T22:00:07.275Z,56.27
2022-08-02T22:02:38.637Z,56.32
2022-08-02T22:05:14.418Z,56.99
2022-08-02T22:07:45.593Z,57.42
2022-08-02T22:10:15.304Z,58.30
2022-08-02T22:12:50.065Z,58.30
2022-08-02T22:15:25.744Z,58.57
2022-08-02T22:18:05.010Z,58.57
2022-08-02T22:20:34.214Z,59.00
2022-08-02T22:23:04.426Z,59.52
2022-08-02T22:25:42.912Z,59.73
2022-08-02T22:28:50.306Z,60.34
2022-08-02T22:31:07.166Z,59.77
2022-08-02T22:34:00.148Z,60.24
2022-08-02T22:36:32.343Z,60.76
2022-08-02T22:39:02.582Z,61.07
2022-08-02T22:42:02.398Z,60.71
2022-08-02T22:44:24.284Z,60.83
2022-08-02T22:46:53.592Z,61.04
2022-08-02T22:49:38.595Z,61.75
2022-08-02T22:52:12.677Z,61.63
2022-08-02T22:54:43.825Z,61.62
2022-08-02T22:57:13.245Z,62.10
2022-08-02T22:58:48.715Z,39.19
2022-08-02T22:58:58.175Z,49.96
2022-08-02T22:59:00.513Z,50.46
2022-08-02T22:59:44.550Z,62.08
2022-08-02T23:02:18.251Z,62.11
2022-08-02T23:04:47.763Z,62.40
2022-08-02T23:07:16.893Z,62.23
2022-08-02T23:09:46.345Z,61.97
2022-08-02T23:12:18.741Z,62.35
2022-08-02T23:14:51.033Z,62.93
2022-08-02T23:17:34.241Z,62.94
2022-08-02T23:20:05.894Z,63.27
2022-08-02T23:22:35.865Z,63.32
2022-08-02T23:25:06.064Z,63.51
2022-08-02T23:27:35.534Z,63.44
2022-08-02T23:30:10.344Z,63.93
2022-08-02T23:32:40.970Z,64.15
2022-08-02T23:35:16.570Z,64.40
2022-08-02T23:38:00.277Z,64.21
2022-08-02T23:40:39.194Z,64.25
2022-08-02T23:43:14.649Z,64.20
2022-08-02T23:45:47.475Z,64.82
2022-08-02T23:48:16.758Z,64.85
2022-08-02T23:50:45.945Z,65.35
2022-08-02T23:53:16.759Z,65.02
2022-08-02T23:55:45.892Z,65.04
2022-08-02T23:58:15.117Z,65.16
